sensor_id;sensor_type;location;lat;lon;timestamp;P1;durP1;ratioP1;P2;durP2;ratioP2
22531;SDS011;11432;46.924;7.114;2023-04-07T00:00:49;1.77;;;0.65;;
22531;SDS011;11432;46.924;7.114;2023-04-07T00:03:15;1.15;;;0.60;;
22531;SDS011;11432;46.924;7.114;2023-04-07T00:05:40;2.25;;;0.95;;
22531;SDS011;11432;46.924;7.114;2023-04-07T00:08:06;0.93;;;0.57;;
22531;SDS011;11432;46.924;7.114;2023-04-07T00:10:32;1.25;;;0.73;;
22531;SDS011;11432;46.924;7.114;2023-04-07T00:12:57;1.95;;;0.70;;
22531;SDS011;11432;46.924;7.114;2023-04-07T00:15:23;2.28;;;1.02;;
22531;SDS011;11432;46.924;7.114;2023-04-07T00:17:48;2.03;;;0.80;;
22531;SDS011;11432;46.924;7.114;2023-04-07T00:20:14;1.13;;;0.68;;
22531;SDS011;11432;46.924;7.114;2023-04-07T00:22:40;2.25;;;0.63;;
22531;SDS011;11432;46.924;7.114;2023-04-07T00:25:06;1.15;;;0.60;;
22531;SDS011;11432;46.924;7.114;2023-04-07T00:27:32;1.50;;;0.75;;
22531;SDS011;11432;46.924;7.114;2023-04-07T00:29:57;3.13;;;0.82;;
22531;SDS011;11432;46.924;7.114;2023-04-07T00:32:23;1.90;;;0.80;;
22531;SDS011;11432;46.924;7.114;2023-04-07T00:34:49;1.20;;;0.90;;
22531;SDS011;11432;46.924;7.114;2023-04-07T00:37:15;1.63;;;0.80;;
22531;SDS011;11432;46.924;7.114;2023-04-07T00:39:40;2.05;;;0.88;;
22531;SDS011;11432;46.924;7.114;2023-04-07T00:42:06;1.40;;;0.90;;
22531;SDS011;11432;46.924;7.114;2023-04-07T00:44:32;1.05;;;0.80;;
22531;SDS011;11432;46.924;7.114;2023-04-07T00:46:58;1.48;;;0.73;;
22531;SDS011;11432;46.924;7.114;2023-04-07T00:49:24;1.42;;;0.70;;
22531;SDS011;11432;46.924;7.114;2023-04-07T00:51:52;1.52;;;0.73;;
22531;SDS011;11432;46.924;7.114;2023-04-07T00:54:24;1.35;;;0.80;;
22531;SDS011;11432;46.924;7.114;2023-04-07T00:56:51;1.70;;;0.80;;
22531;SDS011;11432;46.924;7.114;2023-04-07T00:59:17;2.22;;;1.00;;
22531;SDS011;11432;46.924;7.114;2023-04-07T01:01:45;4.60;;;1.00;;
22531;SDS011;11432;46.924;7.114;2023-04-07T01:04:21;1.67;;;0.80;;
22531;SDS011;11432;46.924;7.114;2023-04-07T01:07:08;1.40;;;0.90;;
22531;SDS011;11432;46.924;7.114;2023-04-07T01:09:53;2.03;;;1.08;;
22531;SDS011;11432;46.924;7.114;2023-04-07T01:14:59;1.92;;;1.40;;
22531;SDS011;11432;46.924;7.114;2023-04-07T01:17:31;3.40;;;2.00;;
22531;SDS011;11432;46.924;7.114;2023-04-07T01:20:03;3.50;;;1.33;;
22531;SDS011;11432;46.924;7.114;2023-04-07T01:31:20;2.33;;;1.40;;
22531;SDS011;11432;46.924;7.114;2023-04-07T01:33:49;3.80;;;1.25;;
22531;SDS011;11432;46.924;7.114;2023-04-07T01:36:16;2.33;;;1.17;;
22531;SDS011;11432;46.924;7.114;2023-04-07T01:38:43;3.95;;;1.60;;
22531;SDS011;11432;46.924;7.114;2023-04-07T01:41:10;2.53;;;1.35;;
22531;SDS011;11432;46.924;7.114;2023-04-07T01:43:38;2.13;;;1.13;;
22531;SDS011;11432;46.924;7.114;2023-04-07T01:46:05;2.17;;;1.30;;
22531;SDS011;11432;46.924;7.114;2023-04-07T01:48:31;3.55;;;1.50;;
22531;SDS011;11432;46.924;7.114;2023-04-07T01:50:59;2.17;;;1.35;;
22531;SDS011;11432;46.924;7.114;2023-04-07T01:53:25;2.58;;;1.58;;
22531;SDS011;11432;46.924;7.114;2023-04-07T01:55:52;2.90;;;1.33;;
22531;SDS011;11432;46.924;7.114;2023-04-07T01:58:18;1.67;;;1.00;;
22531;SDS011;11432;46.924;7.114;2023-04-07T02:00:44;1.77;;;1.10;;
22531;SDS011;11432;46.924;7.114;2023-04-07T02:03:13;2.55;;;1.35;;
22531;SDS011;11432;46.924;7.114;2023-04-07T02:05:47;1.75;;;1.05;;
22531;SDS011;11432;46.924;7.114;2023-04-07T02:08:16;2.13;;;1.13;;
22531;SDS011;11432;46.924;7.114;2023-04-07T02:10:46;1.17;;;0.90;;
22531;SDS011;11432;46.924;7.114;2023-04-07T02:13:15;2.88;;;1.27;;
22531;SDS011;11432;46.924;7.114;2023-04-07T02:15:43;1.85;;;1.10;;
22531;SDS011;11432;46.924;7.114;2023-04-07T02:18:12;2.90;;;1.00;;
22531;SDS011;11432;46.924;7.114;2023-04-07T02:20:39;3.92;;;1.02;;
22531;SDS011;11432;46.924;7.114;2023-04-07T02:23:07;2.55;;;1.30;;
22531;SDS011;11432;46.924;7.114;2023-04-07T02:25:34;1.95;;;0.90;;
22531;SDS011;11432;46.924;7.114;2023-04-07T02:28:02;1.50;;;0.82;;
22531;SDS011;11432;46.924;7.114;2023-04-07T02:30:28;1.70;;;1.15;;
22531;SDS011;11432;46.924;7.114;2023-04-07T02:32:54;3.15;;;1.00;;
22531;SDS011;11432;46.924;7.114;2023-04-07T02:35:20;1.60;;;0.90;;
22531;SDS011;11432;46.924;7.114;2023-04-07T02:37:46;2.13;;;1.15;;
22531;SDS011;11432;46.924;7.114;2023-04-07T02:40:12;2.08;;;1.13;;
22531;SDS011;11432;46.924;7.114;2023-04-07T02:42:38;1.60;;;1.00;;
22531;SDS011;11432;46.924;7.114;2023-04-07T02:45:05;1.40;;;0.80;;
22531;SDS011;11432;46.924;7.114;2023-04-07T02:47:31;1.92;;;0.95;;
22531;SDS011;11432;46.924;7.114;2023-04-07T02:49:57;1.02;;;0.63;;
22531;SDS011;11432;46.924;7.114;2023-04-07T02:52:23;1.85;;;0.90;;
22531;SDS011;11432;46.924;7.114;2023-04-07T02:54:48;3.13;;;1.15;;
22531;SDS011;11432;46.924;7.114;2023-04-07T02:57:14;1.40;;;0.90;;
22531;SDS011;11432;46.924;7.114;2023-04-07T02:59:40;3.55;;;1.23;;
22531;SDS011;11432;46.924;7.114;2023-04-07T03:02:05;5.10;;;0.95;;
22531;SDS011;11432;46.924;7.114;2023-04-07T03:04:31;2.10;;;1.10;;
22531;SDS011;11432;46.924;7.114;2023-04-07T03:06:57;2.25;;;1.10;;
22531;SDS011;11432;46.924;7.114;2023-04-07T03:09:22;2.00;;;1.20;;
22531;SDS011;11432;46.924;7.114;2023-04-07T03:11:48;2.00;;;1.40;;
22531;SDS011;11432;46.924;7.114;2023-04-07T03:14:32;2.22;;;1.13;;
22531;SDS011;11432;46.924;7.114;2023-04-07T03:16:58;1.25;;;1.02;;
22531;SDS011;11432;46.924;7.114;2023-04-07T03:19:23;2.33;;;1.33;;
22531;SDS011;11432;46.924;7.114;2023-04-07T03:21:49;2.40;;;1.20;;
22531;SDS011;11432;46.924;7.114;2023-04-07T03:24:15;3.75;;;1.80;;
22531;SDS011;11432;46.924;7.114;2023-04-07T03:26:41;3.40;;;1.25;;
22531;SDS011;11432;46.924;7.114;2023-04-07T03:29:06;3.78;;;1.20;;
22531;SDS011;11432;46.924;7.114;2023-04-07T03:31:32;2.22;;;1.30;;
22531;SDS011;11432;46.924;7.114;2023-04-07T03:33:57;1.85;;;1.20;;
22531;SDS011;11432;46.924;7.114;2023-04-07T03:36:23;3.38;;;1.30;;
22531;SDS011;11432;46.924;7.114;2023-04-07T03:38:49;2.67;;;1.35;;
22531;SDS011;11432;46.924;7.114;2023-04-07T03:41:14;3.03;;;1.15;;
22531;SDS011;11432;46.924;7.114;2023-04-07T03:43:40;1.45;;;0.95;;
22531;SDS011;11432;46.924;7.114;2023-04-07T03:46:06;2.00;;;1.10;;
22531;SDS011;11432;46.924;7.114;2023-04-07T03:48:31;3.00;;;1.13;;
22531;SDS011;11432;46.924;7.114;2023-04-07T03:50:58;2.80;;;1.00;;
22531;SDS011;11432;46.924;7.114;2023-04-07T03:53:24;2.13;;;1.10;;
22531;SDS011;11432;46.924;7.114;2023-04-07T03:55:49;1.95;;;1.33;;
22531;SDS011;11432;46.924;7.114;2023-04-07T03:58:15;1.65;;;0.90;;
22531;SDS011;11432;46.924;7.114;2023-04-07T04:00:41;2.20;;;1.05;;
22531;SDS011;11432;46.924;7.114;2023-04-07T04:03:06;2.30;;;1.30;;
22531;SDS011;11432;46.924;7.114;2023-04-07T04:05:32;3.30;;;1.17;;
22531;SDS011;11432;46.924;7.114;2023-04-07T04:07:58;6.68;;;1.38;;
22531;SDS011;11432;46.924;7.114;2023-04-07T04:10:23;2.20;;;1.50;;
22531;SDS011;11432;46.924;7.114;2023-04-07T04:12:49;3.05;;;1.40;;
22531;SDS011;11432;46.924;7.114;2023-04-07T04:15:15;2.47;;;1.42;;
22531;SDS011;11432;46.924;7.114;2023-04-07T04:17:40;1.65;;;1.02;;
22531;SDS011;11432;46.924;7.114;2023-04-07T04:20:06;2.60;;;1.40;;
22531;SDS011;11432;46.924;7.114;2023-04-07T04:22:33;2.38;;;1.40;;
22531;SDS011;11432;46.924;7.114;2023-04-07T04:24:59;2.55;;;1.40;;
22531;SDS011;11432;46.924;7.114;2023-04-07T04:27:25;2.55;;;1.40;;
22531;SDS011;11432;46.924;7.114;2023-04-07T04:29:51;2.50;;;1.30;;
22531;SDS011;11432;46.924;7.114;2023-04-07T04:32:17;3.08;;;1.40;;
22531;SDS011;11432;46.924;7.114;2023-04-07T04:34:43;2.10;;;1.35;;
22531;SDS011;11432;46.924;7.114;2023-04-07T04:37:09;3.03;;;1.30;;
22531;SDS011;11432;46.924;7.114;2023-04-07T04:39:35;2.42;;;1.17;;
22531;SDS011;11432;46.924;7.114;2023-04-07T04:42:01;2.55;;;1.63;;
22531;SDS011;11432;46.924;7.114;2023-04-07T04:44:28;3.97;;;1.70;;
22531;SDS011;11432;46.924;7.114;2023-04-07T04:46:54;1.63;;;1.08;;
22531;SDS011;11432;46.924;7.114;2023-04-07T04:49:20;2.75;;;1.40;;
22531;SDS011;11432;46.924;7.114;2023-04-07T04:51:46;3.70;;;1.30;;
22531;SDS011;11432;46.924;7.114;2023-04-07T04:54:12;1.85;;;1.23;;
22531;SDS011;11432;46.924;7.114;2023-04-07T04:56:38;2.63;;;1.33;;
22531;SDS011;11432;46.924;7.114;2023-04-07T04:59:04;3.42;;;1.50;;
22531;SDS011;11432;46.924;7.114;2023-04-07T05:01:30;3.17;;;1.20;;
22531;SDS011;11432;46.924;7.114;2023-04-07T05:03:56;2.33;;;1.20;;
22531;SDS011;11432;46.924;7.114;2023-04-07T05:06:21;3.78;;;1.33;;
22531;SDS011;11432;46.924;7.114;2023-04-07T05:08:47;3.92;;;1.58;;
22531;SDS011;11432;46.924;7.114;2023-04-07T05:11:13;1.83;;;1.17;;
22531;SDS011;11432;46.924;7.114;2023-04-07T05:13:38;2.40;;;1.27;;
22531;SDS011;11432;46.924;7.114;2023-04-07T05:16:04;2.20;;;1.30;;
22531;SDS011;11432;46.924;7.114;2023-04-07T05:18:30;3.17;;;1.27;;
22531;SDS011;11432;46.924;7.114;2023-04-07T05:20:56;4.22;;;1.10;;
22531;SDS011;11432;46.924;7.114;2023-04-07T05:23:21;2.85;;;1.33;;
22531;SDS011;11432;46.924;7.114;2023-04-07T05:25:47;4.28;;;1.85;;
22531;SDS011;11432;46.924;7.114;2023-04-07T05:28:13;3.55;;;1.40;;
22531;SDS011;11432;46.924;7.114;2023-04-07T05:30:38;3.63;;;1.20;;
22531;SDS011;11432;46.924;7.114;2023-04-07T05:33:04;3.10;;;1.40;;
22531;SDS011;11432;46.924;7.114;2023-04-07T05:35:30;3.08;;;1.52;;
22531;SDS011;11432;46.924;7.114;2023-04-07T05:37:56;3.58;;;1.80;;
22531;SDS011;11432;46.924;7.114;2023-04-07T05:40:21;2.30;;;1.50;;
22531;SDS011;11432;46.924;7.114;2023-04-07T05:42:47;2.67;;;1.52;;
22531;SDS011;11432;46.924;7.114;2023-04-07T05:45:12;2.58;;;1.55;;
22531;SDS011;11432;46.924;7.114;2023-04-07T05:47:38;4.47;;;1.70;;
22531;SDS011;11432;46.924;7.114;2023-04-07T05:50:04;2.75;;;1.55;;
22531;SDS011;11432;46.924;7.114;2023-04-07T05:52:31;4.90;;;1.50;;
22531;SDS011;11432;46.924;7.114;2023-04-07T05:54:56;2.15;;;1.17;;
22531;SDS011;11432;46.924;7.114;2023-04-07T05:57:22;1.23;;;0.75;;
22531;SDS011;11432;46.924;7.114;2023-04-07T05:59:47;2.03;;;1.38;;
22531;SDS011;11432;46.924;7.114;2023-04-07T06:02:13;1.85;;;0.98;;
22531;SDS011;11432;46.924;7.114;2023-04-07T06:04:39;1.60;;;1.00;;
22531;SDS011;11432;46.924;7.114;2023-04-07T06:07:06;1.23;;;0.95;;
22531;SDS011;11432;46.924;7.114;2023-04-07T06:09:32;1.65;;;1.10;;
22531;SDS011;11432;46.924;7.114;2023-04-07T06:11:57;1.02;;;0.75;;
22531;SDS011;11432;46.924;7.114;2023-04-07T06:14:23;2.67;;;1.15;;
22531;SDS011;11432;46.924;7.114;2023-04-07T06:16:49;1.23;;;0.95;;
22531;SDS011;11432;46.924;7.114;2023-04-07T06:19:15;3.10;;;1.02;;
22531;SDS011;11432;46.924;7.114;2023-04-07T06:21:41;1.08;;;0.80;;
22531;SDS011;11432;46.924;7.114;2023-04-07T06:24:06;1.88;;;0.80;;
22531;SDS011;11432;46.924;7.114;2023-04-07T06:26:32;1.25;;;0.63;;
22531;SDS011;11432;46.924;7.114;2023-04-07T06:28:58;1.25;;;0.80;;
22531;SDS011;11432;46.924;7.114;2023-04-07T06:31:24;2.33;;;1.02;;
22531;SDS011;11432;46.924;7.114;2023-04-07T06:33:50;2.90;;;0.90;;
22531;SDS011;11432;46.924;7.114;2023-04-07T06:36:15;1.77;;;1.00;;
22531;SDS011;11432;46.924;7.114;2023-04-07T06:38:41;1.40;;;0.82;;
22531;SDS011;11432;46.924;7.114;2023-04-07T06:41:07;2.00;;;0.68;;
22531;SDS011;11432;46.924;7.114;2023-04-07T06:46:02;1.63;;;0.80;;
22531;SDS011;11432;46.924;7.114;2023-04-07T06:48:28;1.40;;;0.88;;
22531;SDS011;11432;46.924;7.114;2023-04-07T06:50:53;1.13;;;0.63;;
22531;SDS011;11432;46.924;7.114;2023-04-07T06:53:19;0.73;;;0.57;;
22531;SDS011;11432;46.924;7.114;2023-04-07T06:55:44;1.42;;;0.95;;
22531;SDS011;11432;46.924;7.114;2023-04-07T06:58:10;2.83;;;1.17;;
22531;SDS011;11432;46.924;7.114;2023-04-07T07:00:36;1.67;;;0.80;;
22531;SDS011;11432;46.924;7.114;2023-04-07T07:03:01;2.03;;;0.82;;
22531;SDS011;11432;46.924;7.114;2023-04-07T07:05:27;1.98;;;0.90;;
22531;SDS011;11432;46.924;7.114;2023-04-07T07:07:53;2.05;;;0.82;;
22531;SDS011;11432;46.924;7.114;2023-04-07T07:10:18;2.53;;;1.10;;
22531;SDS011;11432;46.924;7.114;2023-04-07T07:12:47;1.53;;;0.90;;
22531;SDS011;11432;46.924;7.114;2023-04-07T07:15:13;1.50;;;1.00;;
22531;SDS011;11432;46.924;7.114;2023-04-07T07:17:39;2.33;;;1.27;;
22531;SDS011;11432;46.924;7.114;2023-04-07T07:20:05;2.15;;;1.00;;
22531;SDS011;11432;46.924;7.114;2023-04-07T07:22:31;1.60;;;1.10;;
22531;SDS011;11432;46.924;7.114;2023-04-07T07:24:57;2.33;;;1.08;;
22531;SDS011;11432;46.924;7.114;2023-04-07T07:27:22;1.05;;;0.88;;
22531;SDS011;11432;46.924;7.114;2023-04-07T07:29:48;1.50;;;1.00;;
22531;SDS011;11432;46.924;7.114;2023-04-07T07:32:13;1.45;;;0.90;;
22531;SDS011;11432;46.924;7.114;2023-04-07T07:34:39;1.85;;;0.77;;
22531;SDS011;11432;46.924;7.114;2023-04-07T07:37:05;1.42;;;0.90;;
22531;SDS011;11432;46.924;7.114;2023-04-07T07:39:30;2.97;;;1.45;;
22531;SDS011;11432;46.924;7.114;2023-04-07T07:41:56;2.00;;;1.30;;
22531;SDS011;11432;46.924;7.114;2023-04-07T07:44:22;1.58;;;1.13;;
22531;SDS011;11432;46.924;7.114;2023-04-07T07:46:48;1.83;;;1.10;;
22531;SDS011;11432;46.924;7.114;2023-04-07T07:49:14;1.48;;;1.08;;
22531;SDS011;11432;46.924;7.114;2023-04-07T07:51:40;1.98;;;1.05;;
22531;SDS011;11432;46.924;7.114;2023-04-07T07:54:05;1.67;;;1.10;;
22531;SDS011;11432;46.924;7.114;2023-04-07T07:57:42;1.67;;;1.15;;
22531;SDS011;11432;46.924;7.114;2023-04-07T08:00:08;1.42;;;1.13;;
22531;SDS011;11432;46.924;7.114;2023-04-07T08:02:34;2.35;;;1.30;;
22531;SDS011;11432;46.924;7.114;2023-04-07T08:05:00;1.77;;;1.40;;
22531;SDS011;11432;46.924;7.114;2023-04-07T08:07:26;2.75;;;0.90;;
22531;SDS011;11432;46.924;7.114;2023-04-07T08:09:52;1.90;;;1.23;;
22531;SDS011;11432;46.924;7.114;2023-04-07T08:12:17;1.98;;;1.23;;
22531;SDS011;11432;46.924;7.114;2023-04-07T08:14:43;2.63;;;1.55;;
22531;SDS011;11432;46.924;7.114;2023-04-07T08:17:09;2.67;;;1.55;;
22531;SDS011;11432;46.924;7.114;2023-04-07T08:19:35;2.22;;;1.38;;
22531;SDS011;11432;46.924;7.114;2023-04-07T08:22:00;2.80;;;1.45;;
22531;SDS011;11432;46.924;7.114;2023-04-07T08:24:27;3.08;;;1.90;;
22531;SDS011;11432;46.924;7.114;2023-04-07T08:26:53;3.33;;;1.45;;
22531;SDS011;11432;46.924;7.114;2023-04-07T08:29:18;1.85;;;1.30;;
22531;SDS011;11432;46.924;7.114;2023-04-07T08:31:44;2.28;;;1.52;;
22531;SDS011;11432;46.924;7.114;2023-04-07T08:34:09;2.25;;;1.40;;
22531;SDS011;11432;46.924;7.114;2023-04-07T08:36:35;2.60;;;1.27;;
22531;SDS011;11432;46.924;7.114;2023-04-07T08:39:01;2.20;;;1.60;;
22531;SDS011;11432;46.924;7.114;2023-04-07T08:41:30;2.33;;;1.42;;
22531;SDS011;11432;46.924;7.114;2023-04-07T08:44:00;1.92;;;1.30;;
22531;SDS011;11432;46.924;7.114;2023-04-07T08:46:27;3.22;;;1.55;;
22531;SDS011;11432;46.924;7.114;2023-04-07T08:48:54;2.42;;;1.67;;
22531;SDS011;11432;46.924;7.114;2023-04-07T08:51:30;3.20;;;1.63;;
22531;SDS011;11432;46.924;7.114;2023-04-07T08:54:04;2.00;;;1.40;;
22531;SDS011;11432;46.924;7.114;2023-04-07T08:56:34;2.25;;;1.45;;
22531;SDS011;11432;46.924;7.114;2023-04-07T08:59:07;2.55;;;1.40;;
22531;SDS011;11432;46.924;7.114;2023-04-07T09:01:37;1.70;;;1.30;;
22531;SDS011;11432;46.924;7.114;2023-04-07T09:04:04;1.70;;;1.30;;
22531;SDS011;11432;46.924;7.114;2023-04-07T09:06:32;2.53;;;1.38;;
22531;SDS011;11432;46.924;7.114;2023-04-07T09:08:58;2.83;;;1.55;;
22531;SDS011;11432;46.924;7.114;2023-04-07T09:11:25;2.45;;;1.50;;
22531;SDS011;11432;46.924;7.114;2023-04-07T09:13:51;2.47;;;1.48;;
22531;SDS011;11432;46.924;7.114;2023-04-07T09:16:17;1.77;;;1.55;;
22531;SDS011;11432;46.924;7.114;2023-04-07T09:18:43;2.42;;;1.42;;
22531;SDS011;11432;46.924;7.114;2023-04-07T09:21:08;5.65;;;1.63;;
22531;SDS011;11432;46.924;7.114;2023-04-07T09:23:39;3.30;;;1.40;;
22531;SDS011;11432;46.924;7.114;2023-04-07T09:26:22;1.90;;;1.50;;
22531;SDS011;11432;46.924;7.114;2023-04-07T09:28:52;1.40;;;1.10;;
22531;SDS011;11432;46.924;7.114;2023-04-07T09:31:20;3.92;;;1.42;;
22531;SDS011;11432;46.924;7.114;2023-04-07T09:33:49;2.70;;;1.60;;
22531;SDS011;11432;46.924;7.114;2023-04-07T09:36:15;2.58;;;1.67;;
22531;SDS011;11432;46.924;7.114;2023-04-07T09:38:42;2.40;;;1.60;;
22531;SDS011;11432;46.924;7.114;2023-04-07T09:41:09;2.00;;;1.30;;
22531;SDS011;11432;46.924;7.114;2023-04-07T09:43:41;7.78;;;1.50;;
22531;SDS011;11432;46.924;7.114;2023-04-07T09:48:34;2.03;;;1.40;;
22531;SDS011;11432;46.924;7.114;2023-04-07T09:51:04;1.58;;;1.40;;
22531;SDS011;11432;46.924;7.114;2023-04-07T09:53:41;2.10;;;1.40;;
22531;SDS011;11432;46.924;7.114;2023-04-07T09:56:09;1.90;;;1.40;;
22531;SDS011;11432;46.924;7.114;2023-04-07T09:58:36;2.05;;;1.42;;
22531;SDS011;11432;46.924;7.114;2023-04-07T10:01:05;2.73;;;1.40;;
22531;SDS011;11432;46.924;7.114;2023-04-07T10:03:32;2.40;;;1.60;;
22531;SDS011;11432;46.924;7.114;2023-04-07T10:05:59;2.25;;;1.73;;
22531;SDS011;11432;46.924;7.114;2023-04-07T10:08:26;2.50;;;1.35;;
22531;SDS011;11432;46.924;7.114;2023-04-07T10:10:52;2.45;;;1.80;;
22531;SDS011;11432;46.924;7.114;2023-04-07T10:13:19;3.10;;;1.33;;
22531;SDS011;11432;46.924;7.114;2023-04-07T10:15:45;1.83;;;1.42;;
22531;SDS011;11432;46.924;7.114;2023-04-07T10:18:12;2.03;;;1.27;;
22531;SDS011;11432;46.924;7.114;2023-04-07T10:20:39;3.85;;;1.60;;
22531;SDS011;11432;46.924;7.114;2023-04-07T10:23:08;1.85;;;1.30;;
22531;SDS011;11432;46.924;7.114;2023-04-07T10:25:41;2.28;;;1.20;;
22531;SDS011;11432;46.924;7.114;2023-04-07T10:28:10;2.60;;;1.30;;
22531;SDS011;11432;46.924;7.114;2023-04-07T10:30:37;2.65;;;1.17;;
22531;SDS011;11432;46.924;7.114;2023-04-07T10:33:04;2.17;;;1.30;;
22531;SDS011;11432;46.924;7.114;2023-04-07T10:38:27;2.63;;;1.75;;
22531;SDS011;11432;46.924;7.114;2023-04-07T10:40:53;2.95;;;1.30;;
22531;SDS011;11432;46.924;7.114;2023-04-07T10:43:37;1.27;;;1.17;;
22531;SDS011;11432;46.924;7.114;2023-04-07T10:46:05;2.33;;;1.20;;
22531;SDS011;11432;46.924;7.114;2023-04-07T10:48:31;2.92;;;1.88;;
22531;SDS011;11432;46.924;7.114;2023-04-07T10:53:29;1.98;;;1.48;;
22531;SDS011;11432;46.924;7.114;2023-04-07T10:56:01;2.05;;;1.23;;
22531;SDS011;11432;46.924;7.114;2023-04-07T10:58:30;2.72;;;1.48;;
22531;SDS011;11432;46.924;7.114;2023-04-07T11:03:25;2.38;;;1.67;;
22531;SDS011;11432;46.924;7.114;2023-04-07T11:06:01;3.85;;;2.40;;
22531;SDS011;11432;46.924;7.114;2023-04-07T11:08:38;3.00;;;1.80;;
22531;SDS011;11432;46.924;7.114;2023-04-07T11:11:08;1.63;;;1.10;;
22531;SDS011;11432;46.924;7.114;2023-04-07T11:13:41;4.85;;;2.53;;
22531;SDS011;11432;46.924;7.114;2023-04-07T11:16:15;2.10;;;1.40;;
22531;SDS011;11432;46.924;7.114;2023-04-07T11:18:42;1.70;;;1.33;;
22531;SDS011;11432;46.924;7.114;2023-04-07T11:21:08;1.60;;;1.10;;
22531;SDS011;11432;46.924;7.114;2023-04-07T11:26:07;4.25;;;3.30;;
22531;SDS011;11432;46.924;7.114;2023-04-07T11:29:10;1.92;;;1.23;;
22531;SDS011;11432;46.924;7.114;2023-04-07T11:31:29;2.38;;;1.15;;
22531;SDS011;11432;46.924;7.114;2023-04-07T11:34:04;1.45;;;1.10;;
22531;SDS011;11432;46.924;7.114;2023-04-07T11:36:39;1.38;;;1.00;;
22531;SDS011;11432;46.924;7.114;2023-04-07T11:39:16;2.28;;;1.20;;
22531;SDS011;11432;46.924;7.114;2023-04-07T11:41:45;1.67;;;0.80;;
22531;SDS011;11432;46.924;7.114;2023-04-07T11:44:11;1.02;;;0.90;;
22531;SDS011;11432;46.924;7.114;2023-04-07T11:49:19;1.83;;;1.20;;
22531;SDS011;11432;46.924;7.114;2023-04-07T11:51:45;1.75;;;1.20;;
22531;SDS011;11432;46.924;7.114;2023-04-07T11:54:11;2.03;;;1.20;;
22531;SDS011;11432;46.924;7.114;2023-04-07T11:56:40;1.38;;;1.02;;
22531;SDS011;11432;46.924;7.114;2023-04-07T11:59:17;1.92;;;1.30;;
22531;SDS011;11432;46.924;7.114;2023-04-07T12:01:44;1.00;;;0.70;;
22531;SDS011;11432;46.924;7.114;2023-04-07T12:04:13;1.30;;;0.73;;
22531;SDS011;11432;46.924;7.114;2023-04-07T12:06:43;1.38;;;0.70;;
22531;SDS011;11432;46.924;7.114;2023-04-07T12:12:01;2.25;;;1.40;;
22531;SDS011;11432;46.924;7.114;2023-04-07T12:14:31;1.02;;;0.60;;
22531;SDS011;11432;46.924;7.114;2023-04-07T12:16:57;0.70;;;0.40;;
22531;SDS011;11432;46.924;7.114;2023-04-07T12:19:24;1.15;;;0.30;;
22531;SDS011;11432;46.924;7.114;2023-04-07T12:21:50;1.10;;;0.22;;
22531;SDS011;11432;46.924;7.114;2023-04-07T12:24:16;0.45;;;0.22;;
22531;SDS011;11432;46.924;7.114;2023-04-07T12:26:41;0.32;;;0.20;;
22531;SDS011;11432;46.924;7.114;2023-04-07T12:29:07;0.35;;;0.10;;
22531;SDS011;11432;46.924;7.114;2023-04-07T12:31:33;0.47;;;0.30;;
22531;SDS011;11432;46.924;7.114;2023-04-07T12:33:58;0.73;;;0.10;;
22531;SDS011;11432;46.924;7.114;2023-04-07T12:36:25;1.00;;;0.30;;
22531;SDS011;11432;46.924;7.114;2023-04-07T12:38:56;0.20;;;0.20;;
22531;SDS011;11432;46.924;7.114;2023-04-07T12:41:23;0.13;;;0.13;;
22531;SDS011;11432;46.924;7.114;2023-04-07T12:43:49;0.60;;;0.40;;
22531;SDS011;11432;46.924;7.114;2023-04-07T12:46:15;1.38;;;0.82;;
22531;SDS011;11432;46.924;7.114;2023-04-07T12:48:41;0.60;;;0.50;;
22531;SDS011;11432;46.924;7.114;2023-04-07T12:51:06;0.30;;;0.20;;
22531;SDS011;11432;46.924;7.114;2023-04-07T12:53:32;0.38;;;0.30;;
22531;SDS011;11432;46.924;7.114;2023-04-07T12:55:58;0.50;;;0.20;;
22531;SDS011;11432;46.924;7.114;2023-04-07T12:58:23;0.30;;;0.20;;
22531;SDS011;11432;46.924;7.114;2023-04-07T13:00:51;0.63;;;0.30;;
22531;SDS011;11432;46.924;7.114;2023-04-07T13:03:17;0.38;;;0.28;;
22531;SDS011;11432;46.924;7.114;2023-04-07T13:05:43;0.30;;;0.20;;
22531;SDS011;11432;46.924;7.114;2023-04-07T13:08:08;0.30;;;0.20;;
22531;SDS011;11432;46.924;7.114;2023-04-07T13:10:34;1.08;;;0.35;;
22531;SDS011;11432;46.924;7.114;2023-04-07T13:13:00;0.43;;;0.20;;
22531;SDS011;11432;46.924;7.114;2023-04-07T13:15:26;0.30;;;0.20;;
22531;SDS011;11432;46.924;7.114;2023-04-07T13:17:52;0.52;;;0.25;;
22531;SDS011;11432;46.924;7.114;2023-04-07T13:20:19;0.60;;;0.30;;
22531;SDS011;11432;46.924;7.114;2023-04-07T13:22:45;0.45;;;0.20;;
22531;SDS011;11432;46.924;7.114;2023-04-07T13:25:11;0.43;;;0.20;;
22531;SDS011;11432;46.924;7.114;2023-04-07T13:27:37;0.28;;;0.20;;
22531;SDS011;11432;46.924;7.114;2023-04-07T13:30:03;0.50;;;0.20;;
22531;SDS011;11432;46.924;7.114;2023-04-07T13:32:29;0.43;;;0.25;;
22531;SDS011;11432;46.924;7.114;2023-04-07T13:34:55;0.50;;;0.20;;
22531;SDS011;11432;46.924;7.114;2023-04-07T13:37:20;1.10;;;0.75;;
22531;SDS011;11432;46.924;7.114;2023-04-07T13:39:46;0.80;;;0.30;;
22531;SDS011;11432;46.924;7.114;2023-04-07T13:42:12;0.50;;;0.20;;
22531;SDS011;11432;46.924;7.114;2023-04-07T13:47:09;1.48;;;0.20;;
22531;SDS011;11432;46.924;7.114;2023-04-07T13:49:35;0.60;;;0.30;;
22531;SDS011;11432;46.924;7.114;2023-04-07T13:52:00;0.30;;;0.15;;
22531;SDS011;11432;46.924;7.114;2023-04-07T13:54:26;0.60;;;0.30;;
22531;SDS011;11432;46.924;7.114;2023-04-07T13:56:52;0.30;;;0.20;;
22531;SDS011;11432;46.924;7.114;2023-04-07T13:59:17;0.00;;;0.00;;
22531;SDS011;11432;46.924;7.114;2023-04-07T14:01:43;1.23;;;0.10;;
22531;SDS011;11432;46.924;7.114;2023-04-07T14:04:09;0.65;;;0.20;;
22531;SDS011;11432;46.924;7.114;2023-04-07T14:06:34;0.20;;;0.20;;
22531;SDS011;11432;46.924;7.114;2023-04-07T14:09:01;0.10;;;0.10;;
22531;SDS011;11432;46.924;7.114;2023-04-07T14:11:27;0.32;;;0.20;;
22531;SDS011;11432;46.924;7.114;2023-04-07T14:13:53;1.35;;;0.20;;
22531;SDS011;11432;46.924;7.114;2023-04-07T14:16:20;0.15;;;0.10;;
22531;SDS011;11432;46.924;7.114;2023-04-07T14:18:46;1.80;;;0.30;;
22531;SDS011;11432;46.924;7.114;2023-04-07T14:21:13;0.32;;;0.20;;
22531;SDS011;11432;46.924;7.114;2023-04-07T14:23:39;1.10;;;0.35;;
22531;SDS011;11432;46.924;7.114;2023-04-07T14:26:08;1.20;;;0.13;;
22531;SDS011;11432;46.924;7.114;2023-04-07T14:28:35;0.45;;;0.30;;
22531;SDS011;11432;46.924;7.114;2023-04-07T14:31:00;0.70;;;0.30;;
22531;SDS011;11432;46.924;7.114;2023-04-07T14:33:26;0.10;;;0.10;;
22531;SDS011;11432;46.924;7.114;2023-04-07T14:35:51;0.28;;;0.10;;
22531;SDS011;11432;46.924;7.114;2023-04-07T14:38:17;0.25;;;0.20;;
22531;SDS011;11432;46.924;7.114;2023-04-07T14:40:43;1.05;;;0.40;;
22531;SDS011;11432;46.924;7.114;2023-04-07T14:43:09;1.63;;;0.30;;
22531;SDS011;11432;46.924;7.114;2023-04-07T14:45:34;0.57;;;0.30;;
22531;SDS011;11432;46.924;7.114;2023-04-07T14:48:00;0.60;;;0.25;;
22531;SDS011;11432;46.924;7.114;2023-04-07T14:50:26;1.20;;;0.40;;
22531;SDS011;11432;46.924;7.114;2023-04-07T14:52:52;0.63;;;0.30;;
22531;SDS011;11432;46.924;7.114;2023-04-07T14:55:18;1.58;;;0.35;;
22531;SDS011;11432;46.924;7.114;2023-04-07T14:57:44;1.65;;;0.40;;
22531;SDS011;11432;46.924;7.114;2023-04-07T15:00:10;0.32;;;0.30;;
22531;SDS011;11432;46.924;7.114;2023-04-07T15:02:36;0.50;;;0.38;;
22531;SDS011;11432;46.924;7.114;2023-04-07T15:05:01;0.93;;;0.40;;
22531;SDS011;11432;46.924;7.114;2023-04-07T15:07:27;0.85;;;0.20;;
22531;SDS011;11432;46.924;7.114;2023-04-07T15:09:53;0.77;;;0.40;;
22531;SDS011;11432;46.924;7.114;2023-04-07T15:12:18;0.57;;;0.30;;
22531;SDS011;11432;46.924;7.114;2023-04-07T15:14:44;0.50;;;0.20;;
22531;SDS011;11432;46.924;7.114;2023-04-07T15:17:10;1.20;;;0.50;;
22531;SDS011;11432;46.924;7.114;2023-04-07T15:19:36;0.77;;;0.30;;
22531;SDS011;11432;46.924;7.114;2023-04-07T15:22:02;0.50;;;0.20;;